Skip Navigation Links Skip Navigation Links

Current Weather

Grayling Aaf, Grayling, Mich.

For information only: do not use for flight planning or navigation.
Latest weather
Observation time Sunday, May 31, 2020 7:58 AM EDT
Local time Sunday, May 31, 2020 8:39 AM EDT
Flight conditions Visual Meteorological Conditions
Winds
Wind speed calm
Visibility 10 mi.
Sky condition
Ceiling unlimited
Sky clear
Temperature 38°F
Dewpoint 34°F
Altimeter 30.33 in.Hg
Pressure change last 3 hours-0.05 in.Hg
Pressure rising
Derived measurements
Relative humidity 84%
Wind chill 38°F
Density altitude -594 ft.
Sea-level pressure 30.37 in.Hg
Climate data
Temperature minimum, last 6 hours 29°F
Temperature maximum, last 6 hours 38°F
Remarks
Fully automated report.
System requires maintenance.
Automated weather observing station with precipitation discriminator.
METAR KGOV 311158Z AUTO 00000KT 10SM CLR 04/01 A3033 RMK AO2 SLP285 T00360011 10036 21018 52018 $

Settings

Location code

InnerDrive.Weather 4.0.6770.0 Release CLR 4.0.30319.42000
Copyright ©2018 Inner Drive Technology. All rights reserved. Portions Copyright ©1986-2018 David Braverman.

Find weather

Site navigation


Skip Navigation Links

Place info

Page info

PayPal - The safer, easier way to pay online!

Return home.

Copyright ©2020 Inner Drive Technology. Purveyors of fine, hand-crafted computer software. Page printed 2020-05-31T12:39:31 UTC.